createdAt,value
2022-12-01T00:00:06.035Z,6.30
2022-12-01T00:02:37.618Z,6.30
2022-12-01T00:05:06.998Z,6.30
2022-12-01T00:07:37.101Z,6.30
2022-12-01T00:10:29.742Z,6.30
2022-12-01T00:13:00.728Z,6.30
2022-12-01T00:15:36.994Z,6.30
2022-12-01T00:18:08.212Z,6.30
2022-12-01T00:20:36.341Z,6.40
2022-12-01T00:23:05.922Z,6.40
2022-12-01T00:25:36.431Z,6.30
2022-12-01T00:28:08.104Z,6.20
2022-12-01T00:30:36.955Z,6.20
2022-12-01T00:33:04.055Z,6.20
2022-12-01T00:35:33.916Z,6.20
2022-12-01T00:38:01.094Z,6.20
2022-12-01T00:40:30.692Z,6.20
2022-12-01T00:43:02.020Z,6.20
2022-12-01T00:45:30.248Z,6.20
2022-12-01T00:48:01.702Z,6.20
2022-12-01T00:50:31.239Z,6.20
2022-12-01T00:52:58.370Z,6.20
2022-12-01T00:55:27.426Z,6.20
2022-12-01T00:58:00.901Z,6.20
2022-12-01T01:00:34.661Z,6.20
2022-12-01T01:03:06.527Z,6.20
2022-12-01T01:05:45.557Z,6.20
2022-12-01T01:08:17.602Z,6.20
2022-12-01T01:10:47.625Z,6.20
2022-12-01T01:13:21.791Z,6.20
2022-12-01T01:16:22.807Z,6.20
2022-12-01T01:18:52.032Z,6.20
2022-12-01T01:21:25.320Z,6.30
2022-12-01T01:23:56.322Z,6.20
2022-12-01T01:26:34.701Z,6.30
2022-12-01T01:29:05.691Z,6.20
2022-12-01T01:31:35.339Z,6.20
2022-12-01T01:34:03.999Z,6.20
2022-12-01T01:36:36.721Z,6.20
2022-12-01T01:39:04.821Z,6.20
2022-12-01T01:41:33.695Z,6.20
2022-12-01T01:44:09.362Z,6.10
2022-12-01T01:46:38.590Z,6.20
2022-12-01T01:49:11.850Z,6.10
2022-12-01T01:51:53.769Z,6.10
2022-12-01T01:54:47.210Z,6.10
2022-12-01T01:57:21.394Z,6.10
2022-12-01T01:59:55.994Z,6.10
2022-12-01T02:02:29.282Z,6.20
2022-12-01T02:05:03.115Z,6.20
2022-12-01T02:07:32.221Z,6.20
2022-12-01T02:10:00.420Z,6.20
2022-12-01T02:12:59.714Z,6.20
2022-12-01T02:16:03.688Z,6.20
2022-12-01T02:19:01.179Z,6.20
2022-12-01T02:21:42.240Z,6.20
2022-12-01T02:24:56.899Z,6.20
2022-12-01T02:28:07.269Z,6.20
2022-12-01T02:30:57.337Z,6.10
2022-12-01T02:33:54.147Z,6.10
2022-12-01T02:36:39.403Z,6.10
2022-12-01T02:39:47.751Z,6.10
2022-12-01T02:43:05.071Z,6.10
2022-12-01T02:46:00.909Z,6.20
2022-12-01T02:48:36.743Z,6.30
2022-12-01T02:51:19.659Z,6.20
2022-12-01T02:53:51.982Z,6.20
2022-12-01T02:56:26.103Z,6.20
2022-12-01T02:58:56.190Z,6.20
2022-12-01T03:02:28.128Z,6.30
2022-12-01T03:05:09.434Z,6.30
2022-12-01T03:07:55.580Z,6.30
2022-12-01T03:10:44.191Z,6.30
2022-12-01T03:14:10.888Z,6.30
2022-12-01T03:16:53.246Z,6.30
2022-12-01T03:20:20.467Z,6.30
2022-12-01T03:23:07.902Z,6.30
2022-12-01T03:25:41.975Z,6.30
2022-12-01T03:28:21.868Z,6.40
2022-12-01T03:30:56.157Z,6.30
2022-12-01T03:33:41.944Z,6.40
2022-12-01T03:36:23.316Z,6.40
2022-12-01T03:39:03.220Z,6.40
2022-12-01T03:41:42.386Z,6.40
2022-12-01T03:44:20.833Z,6.40
2022-12-01T03:47:08.713Z,6.30
2022-12-01T03:49:38.908Z,6.30
2022-12-01T03:52:46.294Z,6.30
2022-12-01T03:55:39.354Z,6.40
2022-12-01T03:58:37.825Z,6.40
2022-12-01T04:01:08.637Z,6.40
2022-12-01T04:03:52.055Z,6.50
2022-12-01T04:06:24.842Z,6.40
2022-12-01T04:09:01.104Z,6.40
2022-12-01T04:11:48.712Z,6.40
2022-12-01T04:14:20.595Z,6.40
2022-12-01T04:16:49.282Z,6.40
2022-12-01T04:19:21.321Z,6.40
2022-12-01T04:21:51.834Z,6.30
2022-12-01T04:24:22.783Z,6.40
2022-12-01T04:26:57.512Z,6.30
2022-12-01T04:29:28.765Z,6.30
2022-12-01T04:31:56.577Z,6.30
2022-12-01T04:34:27.824Z,6.30
2022-12-01T04:37:00.148Z,6.40
2022-12-01T04:39:29.962Z,6.40
2022-12-01T04:42:02.586Z,6.40
2022-12-01T04:44:34.960Z,6.40
2022-12-01T04:47:09.605Z,6.40
2022-12-01T04:49:42.651Z,6.40
2022-12-01T04:52:15.324Z,6.40
2022-12-01T04:54:43.451Z,6.30
2022-12-01T04:57:10.792Z,6.20
2022-12-01T04:59:40.934Z,6.20
2022-12-01T05:02:08.615Z,6.20
2022-12-01T05:04:44.139Z,6.20
2022-12-01T05:07:15.173Z,6.30
2022-12-01T05:09:44.639Z,6.30
2022-12-01T05:12:12.710Z,6.40
2022-12-01T05:14:46.836Z,6.30
2022-12-01T05:17:14.159Z,6.30
2022-12-01T05:20:02.484Z,6.30
2022-12-01T05:23:03.734Z,6.40
2022-12-01T05:25:20.367Z,6.30
2022-12-01T05:27:50.163Z,6.30
2022-12-01T05:30:23.123Z,6.30
2022-12-01T05:32:55.853Z,6.30
2022-12-01T05:35:28.298Z,6.20
2022-12-01T05:37:57.869Z,6.30
2022-12-01T05:40:26.103Z,6.30
2022-12-01T05:42:57.667Z,6.30
2022-12-01T05:45:28.295Z,6.30
2022-12-01T05:48:01.177Z,6.30
2022-12-01T05:50:33.109Z,6.30
2022-12-01T05:53:06.071Z,6.20
2022-12-01T05:55:34.946Z,6.30
2022-12-01T05:58:05.560Z,6.20
2022-12-01T06:00:45.685Z,6.20
2022-12-01T06:03:16.218Z,6.20
2022-12-01T06:05:47.931Z,6.20
2022-12-01T06:08:18.335Z,6.30
2022-12-01T06:10:48.249Z,6.30
2022-12-01T06:13:19.725Z,6.30
2022-12-01T06:15:55.391Z,6.30
2022-12-01T06:18:33.295Z,6.30
2022-12-01T06:21:02.305Z,6.40
2022-12-01T06:23:32.185Z,6.40
2022-12-01T06:26:03.263Z,6.40
2022-12-01T06:28:32.007Z,6.40
2022-12-01T06:31:03.918Z,6.40
2022-12-01T06:33:35.727Z,6.50
2022-12-01T06:36:08.953Z,6.50
2022-12-01T06:38:40.391Z,6.50
2022-12-01T06:41:10.889Z,6.50
2022-12-01T06:43:39.907Z,6.50
2022-12-01T06:46:12.254Z,6.40
2022-12-01T06:48:42.820Z,6.50
2022-12-01T06:51:13.549Z,6.60
2022-12-01T06:53:44.771Z,6.50
2022-12-01T06:56:20.612Z,6.50
2022-12-01T06:58:51.138Z,6.40
2022-12-01T07:01:21.329Z,6.50
2022-12-01T07:03:56.083Z,6.50
2022-12-01T07:06:25.142Z,6.50
2022-12-01T07:08:59.396Z,6.50
2022-12-01T07:11:33.179Z,6.60
2022-12-01T07:14:04.256Z,6.70
2022-12-01T07:16:31.780Z,6.70
2022-12-01T07:19:02.398Z,6.70
2022-12-01T07:21:32.155Z,6.70
2022-12-01T07:24:04.078Z,6.70
2022-12-01T07:26:37.539Z,6.70
2022-12-01T07:29:05.416Z,6.70
2022-12-01T07:31:33.508Z,6.80
2022-12-01T07:34:01.159Z,6.80
2022-12-01T07:36:32.219Z,6.90
2022-12-01T07:39:08.917Z,6.90
2022-12-01T07:41:40.121Z,6.80
2022-12-01T07:44:11.822Z,6.90
2022-12-01T07:46:43.342Z,6.90
2022-12-01T07:51:58.115Z,6.90
2022-12-01T07:54:29.463Z,7.00
2022-12-01T07:56:58.252Z,7.00
2022-12-01T07:59:28.908Z,6.90
2022-12-01T08:02:02.326Z,6.90
2022-12-01T08:04:34.372Z,6.90
2022-12-01T08:07:06.789Z,6.90
2022-12-01T08:09:35.878Z,7.00
2022-12-01T08:12:05.503Z,7.00
2022-12-01T08:14:38.096Z,7.10
2022-12-01T08:17:08.433Z,7.10
2022-12-01T08:19:39.047Z,7.10
2022-12-01T08:22:08.318Z,7.00
2022-12-01T08:24:39.255Z,7.00
2022-12-01T08:27:10.933Z,7.10
2022-12-01T08:29:42.554Z,7.10
2022-12-01T08:32:15.578Z,7.10
2022-12-01T08:34:53.156Z,7.10
2022-12-01T08:37:23.476Z,7.00
2022-12-01T08:39:52.412Z,7.00
2022-12-01T08:42:24.528Z,7.00
2022-12-01T08:44:53.264Z,7.10
2022-12-01T08:47:25.533Z,7.20
2022-12-01T08:49:53.020Z,7.30
2022-12-01T08:52:26.886Z,7.30
2022-12-01T08:54:57.846Z,7.30
2022-12-01T08:57:28.753Z,7.30
2022-12-01T08:59:59.019Z,7.30
2022-12-01T09:02:28.338Z,7.20
2022-12-01T09:04:58.717Z,7.20
2022-12-01T09:07:28.455Z,7.30
2022-12-01T09:09:57.800Z,7.30
2022-12-01T09:12:33.887Z,7.30
2022-12-01T09:15:03.550Z,7.30
2022-12-01T09:17:32.047Z,7.30
2022-12-01T09:19:59.953Z,7.30
2022-12-01T09:22:28.255Z,7.40
2022-12-01T09:25:00.120Z,7.40
2022-12-01T09:27:28.326Z,7.40
2022-12-01T09:29:58.159Z,7.50
2022-12-01T09:32:28.838Z,7.50
2022-12-01T09:35:00.372Z,7.50
2022-12-01T09:37:30.971Z,7.40
2022-12-01T09:40:01.445Z,7.30
2022-12-01T09:42:35.755Z,7.30
2022-12-01T09:47:54.958Z,7.40
2022-12-01T09:50:30.091Z,7.40
2022-12-01T09:53:13.920Z,7.40
2022-12-01T09:55:44.679Z,7.30
2022-12-01T09:58:25.681Z,7.30
2022-12-01T10:00:57.508Z,7.30
2022-12-01T10:03:47.015Z,7.20
2022-12-01T10:06:28.211Z,7.20
2022-12-01T10:09:37.788Z,7.20
2022-12-01T10:12:18.534Z,7.10
2022-12-01T10:14:48.408Z,7.10
2022-12-01T10:17:31.173Z,7.10
2022-12-01T10:20:16.818Z,7.10
2022-12-01T10:23:25.010Z,7.10
2022-12-01T10:26:07.413Z,7.20
2022-12-01T10:28:52.331Z,7.20
2022-12-01T10:31:55.494Z,7.10
2022-12-01T10:34:33.515Z,7.20
2022-12-01T10:37:02.355Z,7.10
2022-12-01T10:39:44.258Z,7.10
2022-12-01T10:42:37.493Z,7.00
2022-12-01T10:45:17.358Z,7.00
2022-12-01T10:48:21.424Z,7.10
2022-12-01T10:50:54.652Z,7.10
2022-12-01T10:53:41.467Z,7.20
2022-12-01T10:56:24.754Z,7.20
2022-12-01T10:59:00.092Z,7.20
2022-12-01T11:01:39.983Z,7.10
2022-12-01T11:05:01.726Z,7.10
2022-12-01T11:07:46.589Z,7.10
2022-12-01T11:10:29.660Z,7.00
2022-12-01T11:13:40.004Z,7.10
2022-12-01T11:16:39.868Z,7.10
2022-12-01T11:19:37.974Z,7.10
2022-12-01T11:22:36.153Z,7.20
2022-12-01T11:25:18.422Z,7.10
2022-12-01T11:28:04.650Z,7.10
2022-12-01T11:30:36.115Z,7.00
2022-12-01T11:33:07.192Z,7.00
2022-12-01T11:35:40.056Z,7.00
2022-12-01T11:41:01.366Z,6.90
2022-12-01T11:43:36.668Z,6.90
2022-12-01T11:46:07.947Z,6.90
2022-12-01T11:48:39.346Z,6.90
2022-12-01T11:51:32.403Z,6.90
2022-12-01T11:54:23.180Z,6.80
2022-12-01T11:57:25.523Z,6.80
2022-12-01T11:59:45.693Z,6.90
2022-12-01T12:02:31.223Z,6.90
2022-12-01T12:05:08.644Z,6.90
2022-12-01T12:08:02.118Z,6.90
2022-12-01T12:10:50.012Z,6.80
2022-12-01T12:13:48.784Z,6.90
2022-12-01T12:16:57.827Z,6.90
2022-12-01T12:20:07.083Z,7.00
2022-12-01T12:22:55.009Z,6.90
2022-12-01T12:26:02.717Z,7.00
2022-12-01T12:28:51.826Z,7.00
2022-12-01T12:32:02.968Z,6.90
2022-12-01T12:34:58.990Z,6.90
2022-12-01T12:37:50.518Z,6.90
2022-12-01T12:40:52.398Z,6.90
2022-12-01T12:43:42.246Z,6.90
2022-12-01T12:47:00.883Z,6.90
2022-12-01T12:49:56.460Z,6.80
2022-12-01T12:52:46.873Z,6.70
2022-12-01T12:55:38.652Z,6.80
2022-12-01T12:58:22.015Z,6.80
2022-12-01T13:01:12.737Z,6.80
2022-12-01T13:04:23.445Z,6.70
2022-12-01T13:07:03.890Z,6.70
2022-12-01T13:09:45.060Z,6.60
2022-12-01T13:12:30.654Z,6.70
2022-12-01T13:15:20.659Z,6.80
2022-12-01T13:18:42.218Z,6.80
2022-12-01T13:21:17.918Z,6.80
2022-12-01T13:23:47.697Z,6.80
2022-12-01T13:26:18.069Z,6.80
2022-12-01T13:28:54.173Z,6.90
2022-12-01T13:31:23.524Z,6.80
2022-12-01T13:34:00.748Z,6.80
2022-12-01T13:36:49.461Z,6.80
2022-12-01T13:39:37.041Z,6.80
2022-12-01T13:42:47.086Z,6.70
2022-12-01T13:45:23.892Z,6.70
2022-12-01T13:47:55.964Z,6.70
2022-12-01T13:51:10.108Z,6.70
2022-12-01T13:53:41.386Z,6.70
2022-12-01T13:56:39.534Z,6.70
2022-12-01T13:59:57.120Z,6.60
2022-12-01T14:02:34.859Z,6.60
2022-12-01T14:05:40.153Z,6.50
2022-12-01T14:08:52.789Z,6.50
2022-12-01T14:11:26.898Z,6.50
2022-12-01T14:14:12.148Z,6.50
2022-12-01T14:16:55.054Z,6.50
2022-12-01T14:19:46.928Z,6.50
2022-12-01T14:22:38.537Z,6.50
2022-12-01T14:25:32.082Z,6.40
2022-12-01T14:28:17.065Z,6.40
2022-12-01T14:30:56.633Z,6.40
2022-12-01T14:33:54.529Z,6.30
2022-12-01T14:36:49.645Z,6.40
2022-12-01T14:39:31.241Z,6.40
2022-12-01T14:42:06.129Z,6.40
2022-12-01T14:44:44.084Z,6.40
2022-12-01T14:47:39.595Z,6.40
2022-12-01T14:50:20.849Z,6.50
2022-12-01T14:52:58.952Z,6.50
2022-12-01T14:55:38.598Z,6.50
2022-12-01T14:58:32.014Z,6.40
2022-12-01T15:01:11.140Z,6.40
2022-12-01T15:03:55.930Z,6.40
2022-12-01T15:06:48.389Z,6.40
2022-12-01T15:09:38.501Z,6.30
2022-12-01T15:12:31.136Z,6.30
2022-12-01T15:14:59.438Z,6.30
2022-12-01T15:17:38.788Z,6.30
2022-12-01T15:20:29.305Z,6.40
2022-12-01T15:22:57.634Z,6.30
2022-12-01T15:25:32.423Z,6.20
2022-12-01T15:28:34.134Z,6.20
2022-12-01T15:31:11.857Z,6.10
2022-12-01T15:33:48.801Z,6.20
2022-12-01T15:36:20.438Z,6.30
2022-12-01T15:38:51.882Z,6.30
2022-12-01T15:41:31.712Z,6.30
2022-12-01T15:44:06.934Z,6.20
2022-12-01T15:46:40.272Z,6.30
2022-12-01T15:49:32.035Z,6.30
2022-12-01T15:52:15.885Z,6.30
2022-12-01T15:54:59.145Z,6.40
2022-12-01T15:57:30.209Z,6.30
2022-12-01T16:00:02.668Z,6.40
2022-12-01T16:02:43.655Z,6.40
2022-12-01T16:05:25.404Z,6.30
2022-12-01T16:10:45.164Z,6.30
2022-12-01T16:13:42.659Z,6.30
2022-12-01T16:16:47.716Z,6.30
2022-12-01T16:19:48.472Z,6.30
2022-12-01T16:22:23.030Z,6.30
2022-12-01T16:24:58.614Z,6.30
2022-12-01T16:27:41.211Z,6.30
2022-12-01T16:30:24.948Z,6.40
2022-12-01T16:33:02.774Z,6.40
2022-12-01T16:35:36.173Z,6.30
2022-12-01T16:38:26.102Z,6.40
2022-12-01T16:40:58.246Z,6.40
2022-12-01T16:43:29.636Z,6.40
2022-12-01T16:46:09.668Z,6.30
2022-12-01T16:48:41.730Z,6.30
2022-12-01T16:51:14.575Z,6.20
2022-12-01T16:53:50.919Z,6.30
2022-12-01T16:56:31.295Z,6.20
2022-12-01T16:59:05.367Z,6.30
2022-12-01T17:01:35.640Z,6.30
2022-12-01T17:04:08.716Z,6.40
2022-12-01T17:06:38.435Z,6.40
2022-12-01T17:09:08.279Z,6.30
2022-12-01T17:11:37.348Z,6.30
2022-12-01T17:14:06.690Z,6.30
2022-12-01T17:16:37.405Z,6.30
2022-12-01T17:19:07.730Z,6.30
2022-12-01T17:21:41.088Z,6.30
2022-12-01T17:24:10.798Z,6.30
2022-12-01T17:26:39.231Z,6.30
2022-12-01T17:29:06.334Z,6.40
2022-12-01T17:31:36.445Z,6.30
2022-12-01T17:34:09.006Z,6.30
2022-12-01T17:36:37.207Z,6.30
2022-12-01T17:39:07.592Z,6.30
2022-12-01T17:41:38.217Z,6.30
2022-12-01T17:44:06.307Z,6.30
2022-12-01T17:46:36.747Z,6.30
2022-12-01T17:49:10.534Z,6.30
2022-12-01T17:51:39.674Z,6.30
2022-12-01T17:54:08.493Z,6.20
2022-12-01T17:56:39.696Z,6.10
2022-12-01T17:59:08.692Z,6.00
2022-12-01T18:01:36.595Z,5.90
2022-12-01T18:04:04.265Z,5.90
2022-12-01T18:06:35.943Z,5.90
2022-12-01T18:09:03.959Z,5.90
2022-12-01T18:11:32.437Z,5.90
2022-12-01T18:14:01.647Z,5.90
2022-12-01T18:16:33.222Z,6.00
2022-12-01T18:19:02.489Z,5.90
2022-12-01T18:21:32.895Z,5.90
2022-12-01T18:24:05.334Z,5.90
2022-12-01T18:26:36.304Z,5.90
2022-12-01T18:29:18.508Z,5.90
2022-12-01T18:31:48.879Z,5.90
2022-12-01T18:34:17.827Z,5.90
2022-12-01T18:36:47.760Z,5.90
2022-12-01T18:39:21.092Z,5.90
2022-12-01T18:41:50.705Z,5.90
2022-12-01T18:44:21.903Z,5.90
2022-12-01T18:46:50.714Z,5.90
2022-12-01T18:49:21.731Z,5.90
2022-12-01T18:51:53.146Z,5.90
2022-12-01T18:54:22.617Z,5.90
2022-12-01T18:56:56.799Z,6.00
2022-12-01T18:59:27.376Z,6.00
2022-12-01T19:02:00.279Z,6.00
2022-12-01T19:04:32.509Z,6.00
2022-12-01T19:07:04.884Z,6.00
2022-12-01T19:09:36.794Z,6.00
2022-12-01T19:12:07.962Z,6.00
2022-12-01T19:14:36.655Z,6.00
2022-12-01T19:17:05.723Z,6.00
2022-12-01T19:19:37.357Z,6.10
2022-12-01T19:22:08.034Z,6.00
2022-12-01T19:24:38.944Z,6.00
2022-12-01T19:27:13.881Z,6.00
2022-12-01T19:29:41.766Z,6.00
2022-12-01T19:32:11.907Z,6.00
2022-12-01T19:34:39.114Z,6.00
2022-12-01T19:37:07.925Z,6.10
2022-12-01T19:39:39.095Z,6.10
2022-12-01T19:42:07.585Z,6.10
2022-12-01T19:44:38.720Z,6.10
2022-12-01T19:47:10.287Z,6.10
2022-12-01T19:49:38.761Z,6.00
2022-12-01T19:52:09.164Z,6.00
2022-12-01T19:54:40.025Z,5.90
2022-12-01T19:57:11.280Z,6.00
2022-12-01T19:59:41.052Z,6.00
2022-12-01T20:02:15.797Z,5.90
2022-12-01T20:04:48.346Z,5.80
2022-12-01T20:07:29.088Z,5.80
2022-12-01T20:10:01.639Z,5.80
2022-12-01T20:12:32.681Z,5.90
2022-12-01T20:15:07.742Z,5.90
2022-12-01T20:17:41.662Z,5.90
2022-12-01T20:20:34.085Z,5.90
2022-12-01T20:23:05.431Z,5.90
2022-12-01T20:25:37.931Z,5.90
2022-12-01T20:28:06.850Z,5.90
2022-12-01T20:30:51.616Z,6.00
2022-12-01T20:33:22.746Z,6.00
2022-12-01T20:35:52.091Z,5.90
2022-12-01T20:38:24.269Z,5.90
2022-12-01T20:41:00.087Z,5.90
2022-12-01T20:43:28.656Z,5.90
2022-12-01T20:46:00.333Z,5.90
2022-12-01T20:48:32.607Z,5.80
2022-12-01T20:54:12.336Z,5.80
2022-12-01T20:56:37.452Z,5.80
2022-12-01T20:59:09.425Z,5.90
2022-12-01T21:01:41.447Z,5.80
2022-12-01T21:04:12.105Z,5.80
2022-12-01T21:06:45.821Z,5.90
2022-12-01T21:09:17.956Z,5.80
2022-12-01T21:12:30.857Z,5.80
2022-12-01T21:15:29.670Z,5.80
2022-12-01T21:18:09.807Z,5.80
2022-12-01T21:21:04.933Z,5.80
2022-12-01T21:23:37.789Z,5.90
2022-12-01T21:26:15.888Z,5.90
2022-12-01T21:28:46.095Z,5.90
2022-12-01T21:31:18.796Z,5.90
2022-12-01T21:33:49.143Z,5.90
2022-12-01T21:36:25.339Z,5.80
2022-12-01T21:38:59.897Z,5.80
2022-12-01T21:41:30.630Z,5.90
2022-12-01T21:44:20.289Z,5.90
2022-12-01T21:46:57.734Z,5.80
2022-12-01T21:49:44.146Z,5.70
2022-12-01T21:52:45.218Z,5.70
2022-12-01T21:55:28.577Z,5.80
2022-12-01T21:58:01.698Z,5.70
2022-12-01T22:00:52.659Z,5.70
2022-12-01T22:03:47.462Z,5.70
2022-12-01T22:06:30.316Z,5.70
2022-12-01T22:09:24.095Z,5.80
2022-12-01T22:12:02.338Z,5.90
2022-12-01T22:14:38.237Z,5.90
2022-12-01T22:17:22.870Z,5.80
2022-12-01T22:20:04.056Z,5.90
2022-12-01T22:22:33.242Z,5.80
2022-12-01T22:25:22.833Z,5.80
2022-12-01T22:27:53.090Z,5.70
2022-12-01T22:30:26.932Z,5.70
2022-12-01T22:33:22.151Z,5.70
2022-12-01T22:35:53.437Z,5.70
2022-12-01T22:38:40.487Z,5.70
2022-12-01T22:41:28.026Z,5.70
2022-12-01T22:44:01.601Z,5.70
2022-12-01T22:46:42.213Z,5.60
2022-12-01T22:49:25.473Z,5.60
2022-12-01T22:52:05.440Z,5.60
2022-12-01T22:54:42.808Z,5.70
2022-12-01T22:57:36.949Z,5.70
2022-12-01T23:00:20.919Z,5.70
2022-12-01T23:02:53.838Z,5.70
2022-12-01T23:05:30.845Z,5.70
2022-12-01T23:08:02.270Z,5.70
2022-12-01T23:10:36.548Z,5.80
2022-12-01T23:13:27.435Z,5.80
2022-12-01T23:15:55.317Z,5.90
2022-12-01T23:18:34.370Z,5.90
2022-12-01T23:21:09.310Z,5.90
2022-12-01T23:23:41.385Z,5.90
2022-12-01T23:26:12.255Z,5.90
2022-12-01T23:28:43.956Z,5.90
2022-12-01T23:31:17.235Z,5.90
2022-12-01T23:33:46.351Z,5.90
2022-12-01T23:36:28.548Z,6.00
2022-12-01T23:39:07.200Z,6.00
2022-12-01T23:41:45.522Z,5.90
2022-12-01T23:44:35.876Z,6.00
2022-12-01T23:47:25.135Z,6.00
2022-12-01T23:50:15.867Z,6.00
2022-12-01T23:52:47.534Z,6.00
2022-12-01T23:55:40.826Z,6.00
2022-12-01T23:58:17.819Z,6.00
